Terminal Aerodrome Forecast
Issued by NWS

Home | Current Version | Previous Version | Text Only | Print | Product List | Glossary On
Versions: 1 2 3 4 5 6 7 8 9 10 11 12 13 14
000
FTUS45 KABQ 250500
TAFLVS
TAF
KLVS 250527Z 2506/2606 22012KT P6SM OVC200
     FM251500 23016G25KT P6SM SCT120
     FM251900 23022G32KT P6SM BKN100
     FM260200 22013KT P6SM OVC090=

USA.gov is the U.S. government's official web portal to all federal, state and local government web resources and services.